createdAt,value
2023-04-18T00:01:52.274Z,102245.75
2023-04-18T00:05:53.752Z,102248.28
2023-04-18T00:09:55.132Z,102252.69
2023-04-18T00:13:59.675Z,102254.16
2023-04-18T00:18:03.640Z,102263.03
2023-04-18T00:22:07.113Z,102255.34
2023-04-18T00:26:09.207Z,102258.94
2023-04-18T00:30:11.007Z,102263.03
2023-04-18T00:34:12.588Z,102263.69
2023-04-18T00:38:14.174Z,102266.91
2023-04-18T00:42:15.657Z,102274.34
2023-04-18T00:46:17.045Z,102262.53
2023-04-18T00:50:19.867Z,102261.75
2023-04-18T00:54:21.937Z,102264.75
2023-04-18T00:58:24.550Z,102250.94
2023-04-18T01:02:27.274Z,102258.03
2023-04-18T01:06:29.451Z,102258.13
2023-04-18T01:10:31.214Z,102261.09
2023-04-18T01:14:32.722Z,102260.38
2023-04-18T01:18:34.998Z,102264.91
2023-04-18T01:22:36.517Z,102253.50
2023-04-18T01:26:38.434Z,102269.13
2023-04-18T01:30:40.560Z,102267.28
2023-04-18T01:34:42.012Z,102269.66
2023-04-18T01:38:43.436Z,102266.50
2023-04-18T01:42:44.930Z,102257.34
2023-04-18T01:46:46.457Z,102258.81
2023-04-18T01:50:48.029Z,102259.59
2023-04-18T01:54:49.457Z,102260.41
2023-04-18T01:58:50.888Z,102263.44
2023-04-18T02:02:52.540Z,102260.47
2023-04-18T02:06:54.099Z,102256.06
2023-04-18T02:10:55.505Z,102257.91
2023-04-18T02:14:56.940Z,102248.59
2023-04-18T02:18:58.416Z,102250.34
2023-04-18T02:23:00.737Z,102248.88
2023-04-18T02:27:02.235Z,102257.09
2023-04-18T02:31:03.682Z,102260.06
2023-04-18T02:35:05.493Z,102256.94
2023-04-18T02:39:07.136Z,102254.56
2023-04-18T02:43:08.545Z,102256.25
2023-04-18T02:47:10.073Z,102251.78
2023-04-18T02:51:11.680Z,102266.41
2023-04-18T02:55:13.265Z,102259.84
2023-04-18T02:59:14.665Z,102268.47
2023-04-18T03:03:16.903Z,102255.38
2023-04-18T03:07:18.384Z,102264.84
2023-04-18T03:11:19.874Z,102259.22
2023-04-18T03:15:21.450Z,102267.59
2023-04-18T03:19:22.860Z,102266.66
2023-04-18T03:23:24.367Z,102256.84
2023-04-18T03:27:25.861Z,102267.78
2023-04-18T03:31:27.313Z,102263.09
2023-04-18T03:35:28.746Z,102266.38
2023-04-18T03:39:30.268Z,102266.97
2023-04-18T03:43:31.695Z,102261.22
2023-04-18T03:47:33.555Z,102260.13
2023-04-18T03:51:43.500Z,102266.19
2023-04-18T03:55:44.847Z,102266.97
2023-04-18T03:59:47.916Z,102268.88
2023-04-18T04:03:49.692Z,102265.31
2023-04-18T04:07:51.313Z,102273.38
2023-04-18T04:11:52.739Z,102271.38
2023-04-18T04:15:54.485Z,102274.13
2023-04-18T04:19:56.044Z,102281.03
2023-04-18T04:23:57.704Z,102284.38
2023-04-18T04:28:01.388Z,102286.22
2023-04-18T04:32:05.635Z,102278.06
2023-04-18T04:36:09.035Z,102288.19
2023-04-18T04:40:10.824Z,102296.84
2023-04-18T04:44:12.574Z,102297.75
2023-04-18T04:48:14.379Z,102302.84
2023-04-18T04:52:16.019Z,102301.31
2023-04-18T04:56:17.665Z,102300.09
2023-04-18T05:00:20.956Z,102293.16
2023-04-18T05:04:22.847Z,102299.50
2023-04-18T05:08:24.537Z,102306.13
2023-04-18T05:12:26.729Z,102309.91
2023-04-18T05:16:28.369Z,102310.75
2023-04-18T05:20:29.810Z,102296.41
2023-04-18T05:24:32.498Z,102302.03
2023-04-18T05:28:34.234Z,102301.91
2023-04-18T05:32:35.824Z,102313.59
2023-04-18T05:36:37.432Z,102307.16
2023-04-18T05:40:38.869Z,102310.84
2023-04-18T05:44:40.406Z,102308.00
2023-04-18T05:48:41.835Z,102310.81
2023-04-18T05:52:43.345Z,102313.09
2023-04-18T05:56:44.888Z,102313.84
2023-04-18T06:00:47.957Z,102310.41
2023-04-18T06:04:49.881Z,102315.03
2023-04-18T06:08:51.495Z,102322.41
2023-04-18T06:12:52.991Z,102315.97
2023-04-18T06:16:54.529Z,102317.38
2023-04-18T06:20:56.045Z,102324.00
2023-04-18T06:24:59.271Z,102330.34
2023-04-18T06:29:01.115Z,102321.47
2023-04-18T06:33:03.324Z,102325.81
2023-04-18T06:37:05.773Z,102329.53
2023-04-18T06:41:07.228Z,102320.63
2023-04-18T06:45:11.860Z,102324.94
2023-04-18T06:49:14.453Z,102327.53
2023-04-18T06:53:15.963Z,102336.03
2023-04-18T06:57:17.514Z,102330.91
2023-04-18T07:01:19.550Z,102334.38
2023-04-18T07:05:21.370Z,102339.09
2023-04-18T07:09:23.002Z,102335.44
2023-04-18T07:13:24.490Z,102333.94
2023-04-18T07:17:26.103Z,102343.78
2023-04-18T07:21:27.965Z,102338.66
2023-04-18T07:25:29.566Z,102344.94
2023-04-18T07:29:31.269Z,102344.13
2023-04-18T07:33:33.765Z,102341.34
2023-04-18T07:37:35.370Z,102343.38
2023-04-18T07:41:36.863Z,102339.78
2023-04-18T07:45:38.440Z,102348.63
2023-04-18T07:49:40.005Z,102355.56
2023-04-18T07:53:41.784Z,102349.41
2023-04-18T07:57:45.257Z,102355.34
2023-04-18T08:01:47.965Z,102347.81
2023-04-18T08:05:50.348Z,102356.59
2023-04-18T08:09:51.816Z,102352.97
2023-04-18T08:13:53.599Z,102347.81
2023-04-18T08:17:56.084Z,102355.94
2023-04-18T08:22:11.072Z,102346.44
2023-04-18T08:26:12.615Z,102350.25
2023-04-18T08:30:14.749Z,102356.50
2023-04-18T08:34:16.285Z,102346.13
2023-04-18T08:38:18.898Z,102349.59
2023-04-18T08:42:23.167Z,102349.66
2023-04-18T08:46:26.381Z,102349.47
2023-04-18T08:50:28.028Z,102352.50
2023-04-18T08:54:30.520Z,102358.38
2023-04-18T08:58:33.716Z,102353.44
2023-04-18T09:02:43.610Z,102352.63
2023-04-18T09:06:54.318Z,102360.38
2023-04-18T09:10:56.155Z,102349.53
2023-04-18T09:15:11.124Z,102358.97
2023-04-18T09:19:17.888Z,102353.03
2023-04-18T09:23:24.415Z,102346.66
2023-04-18T09:27:26.023Z,102350.38
2023-04-18T09:31:27.760Z,102342.78
2023-04-18T09:35:29.522Z,102358.03
2023-04-18T09:39:30.968Z,102353.50
2023-04-18T09:43:32.484Z,102355.59
2023-04-18T09:47:35.292Z,102353.13
2023-04-18T09:51:40.498Z,102356.41
2023-04-18T09:55:42.683Z,102348.72
2023-04-18T09:59:54.614Z,102349.53
2023-04-18T10:03:57.600Z,102345.09
2023-04-18T10:07:59.595Z,102350.81
2023-04-18T10:12:02.555Z,102339.88
2023-04-18T10:16:04.568Z,102337.91
2023-04-18T10:20:10.703Z,102338.38
2023-04-18T10:24:52.924Z,102337.19
2023-04-18T10:28:58.667Z,102337.28
2023-04-18T10:33:30.297Z,102334.41
2023-04-18T10:37:33.892Z,102342.41
2023-04-18T10:41:38.161Z,102345.16
2023-04-18T10:45:39.759Z,102337.69
2023-04-18T10:49:53.683Z,102335.59
2023-04-18T10:53:57.775Z,102340.38
2023-04-18T10:57:59.604Z,102331.06
2023-04-18T11:02:25.685Z,102338.13
2023-04-18T11:06:27.646Z,102336.00
2023-04-18T11:10:29.839Z,102340.59
2023-04-18T11:14:45.247Z,102336.09
2023-04-18T11:18:46.681Z,102332.56
2023-04-18T11:22:50.528Z,102328.19
2023-04-18T11:26:55.938Z,102332.53
2023-04-18T11:31:02.710Z,102325.13
2023-04-18T11:35:04.443Z,102319.06
2023-04-18T11:39:06.414Z,102322.81
2023-04-18T11:43:07.870Z,102322.59
2023-04-18T11:47:31.684Z,102319.88
2023-04-18T11:51:39.730Z,102318.22
2023-04-18T11:55:41.225Z,102322.69
2023-04-18T11:59:48.835Z,102322.03
2023-04-18T12:04:07.126Z,102322.25
2023-04-18T12:08:11.722Z,102321.69
2023-04-18T12:12:18.994Z,102319.41
2023-04-18T12:16:20.497Z,102322.94
2023-04-18T12:20:25.080Z,102317.63
2023-04-18T12:24:28.883Z,102320.56
2023-04-18T12:28:31.718Z,102317.31
2023-04-18T12:32:33.167Z,102320.78
2023-04-18T12:36:35.027Z,102317.19
2023-04-18T12:40:39.116Z,102318.94
2023-04-18T12:44:40.942Z,102319.56
2023-04-18T12:48:42.470Z,102320.00
2023-04-18T12:52:44.900Z,102318.59
2023-04-18T12:56:46.907Z,102316.22
2023-04-18T13:00:48.435Z,102320.31
2023-04-18T13:04:51.400Z,102314.06
2023-04-18T13:08:52.915Z,102305.22
2023-04-18T13:12:54.392Z,102297.16
2023-04-18T13:16:55.905Z,102302.56
2023-04-18T13:20:57.363Z,102297.38
2023-04-18T13:24:59.159Z,102295.25
2023-04-18T13:29:00.563Z,102289.31
2023-04-18T13:33:02.068Z,102290.88
2023-04-18T13:37:03.637Z,102285.72
2023-04-18T13:41:12.441Z,102287.03
2023-04-18T13:45:14.543Z,102289.28
2023-04-18T13:49:16.189Z,102281.81
2023-04-18T13:53:18.268Z,102279.56
2023-04-18T13:57:19.825Z,102278.44
2023-04-18T14:01:22.177Z,102279.25
2023-04-18T14:05:23.728Z,102274.72
2023-04-18T14:09:26.748Z,102280.31
2023-04-18T14:13:28.179Z,102276.00
2023-04-18T14:17:30.941Z,102275.44
2023-04-18T14:21:32.354Z,102270.41
2023-04-18T14:25:34.775Z,102277.34
2023-04-18T14:29:36.210Z,102274.47
2023-04-18T14:33:38.383Z,102270.03
2023-04-18T14:37:39.860Z,102255.16
2023-04-18T14:41:41.507Z,102252.88
2023-04-18T14:45:42.957Z,102251.38
2023-04-18T14:49:44.382Z,102256.63
2023-04-18T14:53:46.198Z,102250.84
2023-04-18T14:57:47.691Z,102245.81
2023-04-18T15:01:49.195Z,102252.41
2023-04-18T15:05:52.985Z,102241.41
2023-04-18T15:09:54.449Z,102238.63
2023-04-18T15:13:56.869Z,102229.41
2023-04-18T15:17:58.401Z,102233.72
2023-04-18T15:21:59.968Z,102226.38
2023-04-18T15:26:01.516Z,102233.38
2023-04-18T15:30:03.675Z,102228.28
2023-04-18T15:34:06.257Z,102224.53
2023-04-18T15:38:07.716Z,102229.66
2023-04-18T15:42:09.173Z,102237.06
2023-04-18T15:46:10.986Z,102233.00
2023-04-18T15:50:12.514Z,102242.66
2023-04-18T15:54:14.180Z,102242.38
2023-04-18T15:58:15.817Z,102241.00
2023-04-18T16:02:17.455Z,102241.72
2023-04-18T16:06:22.179Z,102232.03
2023-04-18T16:10:23.788Z,102231.94
2023-04-18T16:14:25.319Z,102235.47
2023-04-18T16:18:26.808Z,102232.09
2023-04-18T16:22:28.226Z,102228.75
2023-04-18T16:26:29.756Z,102228.88
2023-04-18T16:30:31.264Z,102223.97
2023-04-18T16:34:34.138Z,102227.28
2023-04-18T16:38:35.739Z,102227.00
2023-04-18T16:42:37.478Z,102223.84
2023-04-18T16:46:38.999Z,102236.31
2023-04-18T16:50:40.639Z,102228.03
2023-04-18T16:54:42.077Z,102233.06
2023-04-18T16:58:43.577Z,102232.94
2023-04-18T17:02:45.242Z,102241.53
2023-04-18T17:06:46.836Z,102233.72
2023-04-18T17:10:51.646Z,102233.78
2023-04-18T17:14:53.121Z,102243.56
2023-04-18T17:18:55.975Z,102243.09
2023-04-18T17:22:57.472Z,102236.69
2023-04-18T17:27:00.168Z,102244.91
2023-04-18T17:31:01.877Z,102248.72
2023-04-18T17:35:06.164Z,102245.78
2023-04-18T17:39:07.766Z,102247.19
2023-04-18T17:43:11.866Z,102248.34
2023-04-18T17:47:13.370Z,102262.53
2023-04-18T17:51:16.360Z,102264.09
2023-04-18T17:55:18.068Z,102258.91
2023-04-18T17:59:19.557Z,102266.63
2023-04-18T18:03:21.350Z,102264.47
2023-04-18T18:07:22.927Z,102267.31
2023-04-18T18:11:24.487Z,102271.59
2023-04-18T18:15:26.244Z,102276.09
2023-04-18T18:19:27.722Z,102284.63
2023-04-18T18:23:29.187Z,102284.31
2023-04-18T18:27:31.016Z,102297.88
2023-04-18T18:31:32.489Z,102297.56
2023-04-18T18:35:34.895Z,102292.19
2023-04-18T18:39:36.661Z,102295.78
2023-04-18T18:43:38.095Z,102294.63
2023-04-18T18:47:40.193Z,102300.53
2023-04-18T18:51:41.933Z,102305.25
2023-04-18T18:55:44.186Z,102298.41
2023-04-18T18:59:45.616Z,102313.84
2023-04-18T19:03:48.202Z,102318.56
2023-04-18T19:07:51.382Z,102318.03
2023-04-18T19:11:53.148Z,102316.09
2023-04-18T19:15:54.650Z,102323.06
2023-04-18T19:19:57.911Z,102324.84
2023-04-18T19:23:59.399Z,102326.66
2023-04-18T19:28:00.894Z,102329.13
2023-04-18T19:32:02.482Z,102328.06
2023-04-18T19:36:04.280Z,102331.44
2023-04-18T19:40:06.970Z,102323.69
2023-04-18T19:44:08.619Z,102327.88
2023-04-18T19:48:10.122Z,102318.84
2023-04-18T19:52:11.640Z,102331.06
2023-04-18T19:56:14.904Z,102325.03
2023-04-18T20:00:16.782Z,102319.22
2023-04-18T20:04:18.328Z,102319.22
2023-04-18T20:08:20.344Z,102327.44
2023-04-18T20:12:22.179Z,102321.31
2023-04-18T20:16:23.865Z,102320.41
2023-04-18T20:20:25.400Z,102321.34
2023-04-18T20:24:27.927Z,102322.66
2023-04-18T20:28:30.721Z,102316.53
2023-04-18T20:32:33.468Z,102319.50
2023-04-18T20:36:35.388Z,102325.47
2023-04-18T20:40:39.728Z,102311.53
2023-04-18T20:44:43.213Z,102312.19
2023-04-18T20:48:44.716Z,102313.19
2023-04-18T20:52:47.172Z,102316.38
2023-04-18T20:56:48.567Z,102313.81
2023-04-18T21:00:50.142Z,102316.97
2023-04-18T21:04:52.166Z,102316.97
2023-04-18T21:08:53.880Z,102310.53
2023-04-18T21:12:55.342Z,102313.81
2023-04-18T21:16:57.854Z,102321.91
2023-04-18T21:20:59.366Z,102325.28
2023-04-18T21:25:00.757Z,102317.81
2023-04-18T21:29:06.516Z,102316.47
2023-04-18T21:33:07.938Z,102317.09
2023-04-18T21:37:09.408Z,102321.38
2023-04-18T21:41:14.118Z,102314.44
2023-04-18T21:45:15.509Z,102313.41
2023-04-18T21:49:17.016Z,102318.91
2023-04-18T21:53:18.589Z,102309.75
2023-04-18T21:57:19.998Z,102317.09
2023-04-18T22:01:21.455Z,102312.06
2023-04-18T22:05:22.934Z,102307.72
2023-04-18T22:09:24.392Z,102309.69
2023-04-18T22:13:29.807Z,102305.97
2023-04-18T22:17:31.338Z,102315.16
2023-04-18T22:21:32.787Z,102295.53
2023-04-18T22:25:34.809Z,102297.03
2023-04-18T22:29:36.337Z,102293.00
2023-04-18T22:33:37.805Z,102285.63
2023-04-18T22:37:39.292Z,102292.25
2023-04-18T22:41:40.772Z,102281.72
2023-04-18T22:45:42.243Z,102286.66
2023-04-18T22:49:44.296Z,102270.19
2023-04-18T22:53:45.743Z,102278.63
2023-04-18T22:57:47.165Z,102270.88
2023-04-18T23:01:48.661Z,102263.63
2023-04-18T23:05:50.201Z,102257.25
2023-04-18T23:09:51.626Z,102264.22
2023-04-18T23:13:53.020Z,102255.66
2023-04-18T23:17:54.576Z,102258.84
2023-04-18T23:21:56.023Z,102262.75
2023-04-18T23:25:57.478Z,102257.53
2023-04-18T23:29:58.939Z,102262.88
2023-04-18T23:34:00.397Z,102253.19
2023-04-18T23:38:01.819Z,102262.28
2023-04-18T23:42:04.732Z,102248.38
2023-04-18T23:46:06.212Z,102241.66
2023-04-18T23:50:08.210Z,102251.34
2023-04-18T23:54:09.759Z,102239.56
2023-04-18T23:58:11.240Z,102238.22
